Time;durP1;ratioP1;P1;durP2;ratioP2;P2;SDS_P1;SDS_P2;PMS_P1;PMS_P2;Temp;Humidity;BMP_temperature;BMP_pressure;BME280_temperature;BME280_humidity;BME280_pressure;Samples;Min_cycle;Max_cycle;Signal;HPM_P1;HPM_P2
2022/05/05 00:00:55;;;;;;;8.70;6.30;;;14.60;99.90;;;;;;5014358;28;20498;-88
2022/05/05 00:03:21;;;;;;;6.27;5.30;;;14.60;99.90;;;;;;5032777;28;20464;-87
2022/05/05 00:05:47;;;;;;;10.53;6.60;;;14.50;99.90;;;;;;5014326;28;20183;-95
2022/05/05 00:08:13;;;;;;;7.20;5.63;;;14.50;99.90;;;;;;5015772;28;20198;-95
2022/05/05 00:16:08;;;;;;;8.43;6.53;;;14.40;99.90;;;;;;5119684;28;20462;-95
2022/05/05 00:18:34;;;;;;;10.33;7.00;;;14.40;99.90;;;;;;5097770;28;20523;-87
2022/05/05 00:21:00;;;;;;;10.37;6.13;;;14.30;99.90;;;;;;5115972;28;20397;-88
2022/05/05 00:23:26;;;;;;;11.57;6.67;;;14.30;99.90;;;;;;5116750;28;20425;-95
2022/05/05 00:25:52;;;;;;;9.20;6.70;;;14.30;99.90;;;;;;5097622;28;20419;-95
2022/05/05 00:28:21;;;;;;;7.33;6.50;;;14.30;99.90;;;;;;5097893;28;20440;-95
2022/05/05 00:30:47;;;;;;;8.50;5.60;;;14.20;99.90;;;;;;5097857;28;20187;-87
2022/05/05 00:33:12;;;;;;;6.60;5.90;;;14.20;99.90;;;;;;5098108;28;20452;-88
2022/05/05 00:35:38;;;;;;;6.70;5.40;;;14.10;99.90;;;;;;5117153;28;20404;-92
2022/05/05 00:38:04;;;;;;;8.90;6.23;;;14.10;99.90;;;;;;5117159;28;20203;-87
2022/05/05 00:40:30;;;;;;;10.60;6.80;;;14.10;99.90;;;;;;5116747;28;20412;-88
2022/05/05 00:42:59;;;;;;;7.00;5.77;;;14.10;99.90;;;;;;5118119;28;20188;-95
2022/05/05 00:45:25;;;;;;;6.40;5.13;;;14.00;99.90;;;;;;5100343;28;20495;-88
2022/05/05 00:47:50;;;;;;;12.10;6.97;;;14.00;99.90;;;;;;5117748;28;20460;-96
2022/05/05 00:50:18;;;;;;;6.90;5.83;;;14.00;99.90;;;;;;5099316;28;20176;-93
2022/05/05 00:52:44;;;;;;;8.33;5.80;;;13.90;99.90;;;;;;5115945;28;20219;-87
2022/05/05 00:55:10;;;;;;;14.00;6.90;;;13.90;99.90;;;;;;5102431;28;20435;-88
2022/05/05 00:57:37;;;;;;;5.87;5.10;;;13.90;99.90;;;;;;5121381;28;20219;-87
2022/05/05 01:00:04;;;;;;;10.17;7.30;;;13.90;99.90;;;;;;5119358;28;20817;-94
2022/05/05 01:02:32;;;;;;;9.27;5.67;;;13.90;99.90;;;;;;5132690;28;20447;-95
2022/05/05 01:04:58;;;;;;;10.10;6.20;;;13.80;99.90;;;;;;5099769;28;20783;-88
2022/05/05 01:07:25;;;;;;;11.57;8.13;;;13.80;99.90;;;;;;5096048;28;20458;-88
2022/05/05 01:09:51;;;;;;;7.90;6.40;;;13.70;99.90;;;;;;5116948;28;20199;-95
2022/05/05 01:12:17;;;;;;;7.87;5.67;;;13.70;99.90;;;;;;5020474;28;20895;-93
2022/05/05 01:14:44;;;;;;;11.20;6.63;;;13.70;99.90;;;;;;5017500;28;20811;-94
2022/05/05 01:17:10;;;;;;;9.70;6.83;;;13.60;99.90;;;;;;5016868;28;20487;-95
2022/05/05 01:19:36;;;;;;;8.20;5.60;;;13.60;99.90;;;;;;5036636;28;20544;-87
2022/05/05 01:22:03;;;;;;;9.10;6.43;;;13.50;99.90;;;;;;5037167;28;20493;-88
2022/05/05 01:29:58;;;;;;;9.33;6.10;;;13.50;99.90;;;;;;5055768;28;20424;-95
2022/05/05 01:32:30;;;;;;;10.00;7.13;;;13.50;99.90;;;;;;5037387;28;20494;-87
2022/05/05 01:34:56;;;;;;;11.00;7.53;;;13.40;99.90;;;;;;5037819;28;20821;-88
2022/05/05 01:37:21;;;;;;;8.23;6.57;;;13.40;99.90;;;;;;5037387;28;20529;-95
2022/05/05 01:39:48;;;;;;;9.33;6.30;;;13.40;99.90;;;;;;5039113;28;20591;-87
2022/05/05 01:42:13;;;;;;;12.40;7.37;;;13.30;99.90;;;;;;5055603;28;20282;-87
2022/05/05 01:44:39;;;;;;;9.23;6.93;;;13.30;99.90;;;;;;5036887;28;20441;-93
2022/05/05 01:47:05;;;;;;;10.13;7.27;;;13.30;99.90;;;;;;5037426;28;20202;-87
2022/05/05 01:49:30;;;;;;;11.40;7.43;;;13.20;99.90;;;;;;5037798;28;20189;-94
2022/05/05 01:51:56;;;;;;;11.00;7.33;;;13.20;99.90;;;;;;5037958;28;20670;-88
2022/05/05 01:54:22;;;;;;;10.63;6.70;;;13.20;99.90;;;;;;5037291;28;20174;-93
2022/05/05 01:56:48;;;;;;;11.43;6.67;;;13.10;99.90;;;;;;5038517;28;20228;-87
2022/05/05 01:59:13;;;;;;;8.97;6.60;;;13.10;99.90;;;;;;5038568;28;20497;-87
2022/05/05 02:01:39;;;;;;;10.80;7.60;;;13.10;99.90;;;;;;5056235;28;20654;-96
2022/05/05 02:04:04;;;;;;;11.63;7.70;;;13.10;99.90;;;;;;5037564;28;20209;-86
2022/05/05 02:06:30;;;;;;;9.63;6.37;;;13.10;99.90;;;;;;5055578;28;20178;-88
2022/05/05 02:08:57;;;;;;;13.17;7.07;;;13.00;99.90;;;;;;5054488;28;20245;-93
2022/05/05 02:11:23;;;;;;;9.93;7.00;;;13.00;99.90;;;;;;5027791;28;20238;-95
2022/05/05 02:13:49;;;;;;;12.63;7.87;;;13.00;99.90;;;;;;5037535;28;20415;-87
2022/05/05 02:16:14;;;;;;;13.50;7.23;;;13.00;99.90;;;;;;5106449;28;20225;-95
2022/05/05 02:18:40;;;;;;;12.60;7.90;;;13.00;99.90;;;;;;5022381;28;20424;-95
2022/05/05 02:21:06;;;;;;;12.37;8.03;;;13.00;99.90;;;;;;5028162;28;20186;-95
2022/05/05 02:23:31;;;;;;;9.87;5.93;;;12.90;99.90;;;;;;5104034;28;20241;-91
2022/05/05 02:25:57;;;;;;;9.67;7.53;;;12.90;99.90;;;;;;5034757;28;20179;-94
2022/05/05 02:28:23;;;;;;;11.43;7.67;;;13.00;99.90;;;;;;5082275;28;20211;-95
2022/05/05 02:30:49;;;;;;;8.70;6.23;;;13.00;99.90;;;;;;5013622;28;20253;-86
2022/05/05 02:33:14;;;;;;;12.90;7.60;;;13.00;99.90;;;;;;5082531;28;20612;-95
2022/05/05 02:35:40;;;;;;;14.77;7.77;;;12.90;99.90;;;;;;5014672;28;20171;-94
2022/05/05 02:40:50;;;;;;;10.15;7.50;;;12.90;99.90;;;;;;5016091;28;20485;-87
2022/05/05 02:43:16;;;;;;;12.73;6.57;;;12.90;99.90;;;;;;4998379;28;20239;-89
2022/05/05 02:45:42;;;;;;;11.53;7.93;;;12.80;99.90;;;;;;5081605;28;20228;-93
2022/05/05 02:48:08;;;;;;;11.50;7.63;;;12.80;99.90;;;;;;5014608;28;20772;-87
2022/05/05 02:50:34;;;;;;;14.03;6.77;;;12.80;99.90;;;;;;5014498;28;20171;-94
2022/05/05 02:53:00;;;;;;;12.77;7.80;;;12.80;99.90;;;;;;5082423;28;20495;-92
2022/05/05 02:55:26;;;;;;;12.70;7.93;;;12.70;99.90;;;;;;4996947;28;20178;-88
2022/05/05 02:57:52;;;;;;;12.70;7.35;;;12.70;99.90;;;;;;5082017;28;20491;-95
2022/05/05 03:00:20;;;;;;;15.70;8.30;;;12.70;99.90;;;;;;5082725;28;20270;-94
2022/05/05 03:02:46;;;;;;;11.23;8.18;;;12.60;99.90;;;;;;5083459;28;20203;-88
2022/05/05 03:05:16;;;;;;;15.40;9.00;;;12.60;99.90;;;;;;5014925;28;20254;-88
2022/05/05 03:07:42;;;;;;;13.90;8.63;;;12.60;99.90;;;;;;4997238;28;20210;-87
2022/05/05 03:10:08;;;;;;;11.82;7.13;;;12.50;99.90;;;;;;5091507;28;20232;-95
2022/05/05 03:12:34;;;;;;;13.50;8.52;;;12.50;99.90;;;;;;5099049;28;20203;-96
2022/05/05 03:15:00;;;;;;;15.03;9.00;;;12.50;99.90;;;;;;5117128;28;20212;-87
2022/05/05 03:17:25;;;;;;;16.20;8.80;;;12.50;99.90;;;;;;5118083;28;20220;-87
2022/05/05 03:19:51;;;;;;;10.87;7.57;;;12.40;99.90;;;;;;5099945;28;20171;-92
2022/05/05 03:22:17;;;;;;;13.97;8.63;;;12.40;99.90;;;;;;5099782;28;20200;-96
2022/05/05 03:24:43;;;;;;;14.60;8.83;;;12.40;99.90;;;;;;5100455;28;20176;-87
2022/05/05 03:27:08;;;;;;;12.27;8.97;;;12.50;99.90;;;;;;5100854;28;20199;-87
2022/05/05 03:29:34;;;;;;;12.90;8.07;;;12.50;99.90;;;;;;5099687;28;20183;-88
2022/05/05 03:32:00;;;;;;;15.83;10.47;;;12.50;99.90;;;;;;5117264;28;20199;-88
2022/05/05 03:34:25;;;;;;;12.53;8.80;;;12.50;99.90;;;;;;5100626;28;20176;-88
2022/05/05 03:36:51;;;;;;;15.10;9.90;;;12.60;99.90;;;;;;5100894;28;20264;-95
2022/05/05 03:39:17;;;;;;;14.93;8.67;;;12.60;99.90;;;;;;5100373;28;20180;-87
2022/05/05 03:41:43;;;;;;;14.07;8.70;;;12.70;99.90;;;;;;5119635;28;20472;-95
2022/05/05 03:44:08;;;;;;;17.00;8.97;;;12.70;99.90;;;;;;5100759;28;20187;-89
2022/05/05 03:46:34;;;;;;;14.03;9.17;;;12.80;99.90;;;;;;5098202;28;20195;-95
2022/05/05 03:49:00;;;;;;;15.83;9.93;;;12.80;99.90;;;;;;5099708;28;20167;-95
2022/05/05 03:51:26;;;;;;;20.23;10.63;;;12.80;99.90;;;;;;5097351;28;20916;-95
2022/05/05 03:53:52;;;;;;;20.50;10.90;;;12.90;99.90;;;;;;5098635;28;20508;-93
2022/05/05 03:56:18;;;;;;;15.73;10.50;;;12.90;99.90;;;;;;5097592;28;20208;-95
2022/05/05 03:58:44;;;;;;;18.67;10.03;;;13.00;99.90;;;;;;5097492;28;20420;-87
2022/05/05 04:01:10;;;;;;;17.80;10.50;;;13.00;99.90;;;;;;5116338;28;20740;-87
2022/05/05 04:03:42;;;;;;;16.23;10.17;;;13.10;99.90;;;;;;5097963;28;20440;-87
2022/05/05 04:06:09;;;;;;;17.20;8.97;;;13.10;99.90;;;;;;5116488;28;20172;-94
2022/05/05 04:08:37;;;;;;;16.93;9.43;;;13.20;99.90;;;;;;5097838;28;20435;-95
2022/05/05 04:11:04;;;;;;;15.30;9.43;;;13.30;99.90;;;;;;5061873;28;20464;-87
2022/05/05 04:13:29;;;;;;;17.60;9.80;;;13.30;99.90;;;;;;5034977;28;20796;-88
2022/05/05 04:15:55;;;;;;;15.67;9.33;;;13.40;99.90;;;;;;5032210;28;20416;-93
2022/05/05 04:18:21;;;;;;;16.00;10.30;;;13.50;99.90;;;;;;5033906;28;20198;-88
2022/05/05 04:20:49;;;;;;;17.60;10.10;;;13.50;99.90;;;;;;5034660;28;20174;-87
2022/05/05 04:23:15;;;;;;;19.17;10.30;;;13.50;99.90;;;;;;5016001;28;20198;-96
2022/05/05 04:25:43;;;;;;;15.93;9.83;;;13.60;99.90;;;;;;5021307;28;20947;-96
2022/05/05 04:28:09;;;;;;;13.23;8.33;;;13.70;99.90;;;;;;5033039;28;20456;-95
2022/05/05 04:30:35;;;;;;;13.60;7.60;;;13.70;99.90;;;;;;5032901;28;20423;-95
2022/05/05 04:33:02;;;;;;;11.00;7.90;;;13.80;99.90;;;;;;5032355;28;20443;-95
2022/05/05 04:35:27;;;;;;;12.87;7.83;;;13.80;99.90;;;;;;5032086;28;20759;-94
2022/05/05 04:37:53;;;;;;;10.00;6.73;;;13.90;99.90;;;;;;5015228;28;20479;-96
2022/05/05 04:40:19;;;;;;;12.47;8.40;;;13.90;99.90;;;;;;5018724;28;20266;-95
2022/05/05 04:42:45;;;;;;;14.70;9.17;;;14.00;99.90;;;;;;5034006;28;20463;-87
2022/05/05 04:45:11;;;;;;;11.50;7.50;;;14.00;99.90;;;;;;5013878;28;20506;-94
2022/05/05 04:47:37;;;;;;;12.23;9.27;;;14.00;99.90;;;;;;5034026;28;20194;-88
2022/05/05 04:50:05;;;;;;;13.03;7.43;;;14.10;99.90;;;;;;5016148;28;20451;-95
2022/05/05 04:52:31;;;;;;;14.30;9.00;;;14.10;99.90;;;;;;5014661;28;20443;-88
2022/05/05 04:54:57;;;;;;;11.33;8.60;;;14.20;99.90;;;;;;5015961;28;20408;-95
2022/05/05 04:57:23;;;;;;;15.93;10.10;;;14.20;99.90;;;;;;5040821;28;20483;-95
2022/05/05 04:59:49;;;;;;;17.53;10.07;;;14.20;99.90;;;;;;5058230;28;20435;-95
2022/05/05 05:02:15;;;;;;;21.00;11.20;;;14.30;99.90;;;;;;5040806;28;20186;-88
2022/05/05 05:04:41;;;;;;;39.93;20.27;;;14.30;99.90;;;;;;5039134;28;20444;-90
2022/05/05 05:07:07;;;;;;;18.10;10.97;;;14.30;99.90;;;;;;5014431;28;20308;-95
2022/05/05 05:09:34;;;;;;;16.27;10.10;;;14.40;99.90;;;;;;5011646;28;20486;-95
2022/05/05 05:12:00;;;;;;;14.17;9.80;;;14.40;99.90;;;;;;5103228;28;20222;-96
2022/05/05 05:14:26;;;;;;;15.07;9.37;;;14.50;99.90;;;;;;5110506;28;20504;-88
2022/05/05 05:16:52;;;;;;;18.53;11.20;;;14.50;99.90;;;;;;5098021;28;20911;-94
2022/05/05 05:19:19;;;;;;;16.00;10.10;;;14.60;99.90;;;;;;5110463;28;20320;-96
2022/05/05 05:21:45;;;;;;;15.20;9.30;;;14.70;99.90;;;;;;5095032;28;20455;-89
2022/05/05 05:24:11;;;;;;;13.90;9.80;;;14.70;99.90;;;;;;5091242;28;20432;-95
2022/05/05 05:26:37;;;;;;;17.73;9.90;;;14.80;99.90;;;;;;5088392;28;20941;-89
2022/05/05 05:29:02;;;;;;;18.67;11.47;;;14.80;99.90;;;;;;5095692;28;20419;-94
2022/05/05 05:31:28;;;;;;;16.30;9.57;;;15.00;99.90;;;;;;5093679;28;20184;-89
2022/05/05 05:33:54;;;;;;;13.40;9.20;;;15.00;99.90;;;;;;5095272;28;20216;-94
2022/05/05 05:36:20;;;;;;;14.67;9.20;;;15.10;99.90;;;;;;5097609;28;20232;-88
2022/05/05 05:38:46;;;;;;;14.50;9.33;;;15.10;99.90;;;;;;5097350;28;20821;-88
2022/05/05 05:41:11;;;;;;;14.17;9.03;;;15.20;99.90;;;;;;5100353;28;20420;-88
2022/05/05 05:43:37;;;;;;;11.00;7.70;;;15.30;99.90;;;;;;5130577;28;20228;-96
2022/05/05 05:46:03;;;;;;;14.10;9.17;;;15.40;99.90;;;;;;5103784;28;20188;-96
2022/05/05 05:48:29;;;;;;;10.00;7.17;;;15.40;99.90;;;;;;5095449;28;20218;-96
2022/05/05 05:50:55;;;;;;;16.37;8.67;;;15.50;99.90;;;;;;5108023;28;20549;-88
2022/05/05 05:53:21;;;;;;;9.83;8.00;;;15.50;99.90;;;;;;5092551;28;20199;-95
2022/05/05 05:55:47;;;;;;;13.03;7.93;;;15.60;99.90;;;;;;5105405;28;20453;-88
2022/05/05 05:58:12;;;;;;;11.57;8.50;;;15.70;99.90;;;;;;5101288;27;20482;-89
2022/05/05 06:00:38;;;;;;;11.13;7.73;;;15.70;99.90;;;;;;5122103;27;20295;-88
2022/05/05 06:05:49;;;;;;;10.20;7.20;;;15.80;99.90;;;;;;5116659;28;20954;-96
2022/05/05 06:08:15;;;;;;;10.20;7.50;;;15.90;99.90;;;;;;5113991;28;20542;-96
2022/05/05 06:10:41;;;;;;;12.47;6.50;;;16.00;99.90;;;;;;5085755;27;20248;-96
2022/05/05 06:13:10;;;;;;;10.60;8.00;;;16.10;99.90;;;;;;5031121;28;20395;-88
2022/05/05 06:15:36;;;;;;;10.70;7.37;;;16.20;99.90;;;;;;5010912;28;20431;-95
2022/05/05 06:18:01;;;;;;;13.10;7.50;;;16.30;99.90;;;;;;5018314;28;20475;-88
2022/05/05 06:20:27;;;;;;;11.00;7.43;;;16.40;99.90;;;;;;5030035;28;20186;-87
2022/05/05 06:22:54;;;;;;;10.40;6.70;;;16.50;99.90;;;;;;5028193;28;20564;-95
2022/05/05 06:25:23;;;;;;;10.13;6.70;;;16.60;99.90;;;;;;5018871;28;20186;-87
2022/05/05 06:27:49;;;;;;;8.30;6.80;;;16.70;99.90;;;;;;5029252;28;20834;-95
2022/05/05 06:30:15;;;;;;;11.13;7.47;;;16.80;99.90;;;;;;5032309;28;20534;-95
2022/05/05 06:32:41;;;;;;;9.03;7.10;;;16.90;99.90;;;;;;5013896;28;20443;-93
2022/05/05 06:35:07;;;;;;;9.57;7.00;;;17.00;99.90;;;;;;5010197;28;20415;-88
2022/05/05 06:37:32;;;;;;;8.83;6.27;;;17.10;99.90;;;;;;5011346;28;20229;-89
2022/05/05 06:40:00;;;;;;;8.57;6.87;;;17.20;99.90;;;;;;5012345;28;20429;-93
2022/05/05 06:42:27;;;;;;;8.43;6.57;;;17.30;99.90;;;;;;5008154;28;20515;-96
2022/05/05 06:44:53;;;;;;;8.67;6.07;;;17.40;99.90;;;;;;5026133;28;20420;-87
2022/05/05 06:47:19;;;;;;;7.07;5.70;;;17.50;99.90;;;;;;5015024;28;20546;-95
2022/05/05 06:49:44;;;;;;;7.07;6.03;;;17.60;99.90;;;;;;5025175;27;20277;-88
2022/05/05 06:52:10;;;;;;;8.83;7.73;;;17.70;99.90;;;;;;5046962;28;20207;-95
2022/05/05 06:54:36;;;;;;;10.33;7.27;;;17.80;99.90;;;;;;5029342;28;20185;-88
2022/05/05 06:57:02;;;;;;;12.70;7.47;;;17.90;99.90;;;;;;5011562;28;21004;-96
2022/05/05 06:59:28;;;;;;;9.13;6.50;;;18.00;99.90;;;;;;5029926;28;20175;-96
2022/05/05 07:01:57;;;;;;;6.63;5.50;;;18.10;99.90;;;;;;5009810;28;20663;-96
2022/05/05 07:07:13;;;;;;;6.07;5.47;;;18.30;99.90;;;;;;5036145;27;20481;-88
2022/05/05 07:12:28;;;;;;;7.10;4.87;;;18.50;99.90;;;;;;5010227;28;20474;-94
2022/05/05 07:14:54;;;;;;;7.30;5.43;;;18.60;99.90;;;;;;5042134;28;20424;-95
2022/05/05 07:17:20;;;;;;;7.83;4.53;;;18.70;99.90;;;;;;5012618;28;20495;-88
2022/05/05 07:19:46;;;;;;;6.60;4.50;;;18.80;99.90;;;;;;5007264;28;20430;-95
2022/05/05 07:22:12;;;;;;;9.40;6.33;;;18.90;99.90;;;;;;5040730;28;20463;-88
2022/05/05 07:24:38;;;;;;;6.10;4.80;;;19.00;99.90;;;;;;4999163;28;20435;-95
2022/05/05 07:27:05;;;;;;;6.50;5.17;;;19.00;99.90;;;;;;5019520;28;20247;-96
2022/05/05 07:29:31;;;;;;;5.63;4.40;;;19.10;99.90;;;;;;5015749;28;20529;-96
2022/05/05 07:32:00;;;;;;;6.33;4.63;;;19.20;99.90;;;;;;5020500;28;20798;-96
2022/05/05 07:34:26;;;;;;;5.80;4.70;;;19.30;99.90;;;;;;4991346;28;20490;-87
2022/05/05 07:36:52;;;;;;;4.60;4.13;;;19.40;99.90;;;;;;5015683;28;20487;-94
2022/05/05 07:39:18;;;;;;;9.70;4.67;;;19.50;99.90;;;;;;5013515;28;20193;-88
2022/05/05 07:41:44;;;;;;;5.27;4.23;;;19.60;99.90;;;;;;4991241;28;20471;-96
2022/05/05 07:44:10;;;;;;;4.73;3.43;;;19.70;99.90;;;;;;5076626;28;20193;-96
2022/05/05 07:46:36;;;;;;;6.57;4.43;;;19.80;99.90;;;;;;5014327;28;20436;-88
2022/05/05 07:49:06;;;;;;;6.60;5.20;;;19.90;99.90;;;;;;5006589;28;20978;-94
2022/05/05 07:51:32;;;;;;;7.50;5.40;;;20.00;99.90;;;;;;5004239;28;20436;-95
2022/05/05 07:56:43;;;;;;;7.40;5.40;;;20.20;99.90;;;;;;5016226;28;20838;-95
2022/05/05 07:59:10;;;;;;;5.20;3.40;;;20.30;99.90;;;;;;4989037;28;20452;-88
2022/05/05 08:01:36;;;;;;;5.37;4.30;;;20.40;99.90;;;;;;4985408;28;21701;-95
2022/05/05 08:04:02;;;;;;;5.67;3.83;;;20.50;99.90;;;;;;4981833;28;20458;-95
2022/05/05 08:06:28;;;;;;;4.13;3.40;;;20.50;99.90;;;;;;4979247;28;20455;-88
2022/05/05 08:08:54;;;;;;;4.53;3.80;;;20.60;99.90;;;;;;5006411;28;20432;-89
2022/05/05 08:11:20;;;;;;;4.43;3.43;;;20.60;99.90;;;;;;5047294;28;20571;-88
2022/05/05 08:13:45;;;;;;;5.43;3.53;;;20.70;99.90;;;;;;5084570;28;20186;-88
2022/05/05 08:16:12;;;;;;;7.03;3.60;;;20.80;99.90;;;;;;5082127;28;20244;-89
2022/05/05 08:18:38;;;;;;;4.03;3.40;;;20.90;99.90;;;;;;5084605;28;20252;-88
2022/05/05 08:21:05;;;;;;;3.80;3.00;;;21.00;99.90;;;;;;5109125;28;20428;-87
2022/05/05 08:23:31;;;;;;;3.90;3.40;;;21.10;99.90;;;;;;5104685;28;20460;-96
2022/05/05 08:28:41;;;;;;;3.87;3.47;;;21.30;99.90;;;;;;5114066;28;20476;-94
2022/05/05 08:31:10;;;;;;;3.80;3.43;;;21.50;99.90;;;;;;5091751;28;20479;-96
2022/05/05 08:33:38;;;;;;;5.40;4.37;;;21.50;99.90;;;;;;5106222;28;20467;-95
2022/05/05 08:36:05;;;;;;;5.13;3.77;;;21.70;99.90;;;;;;5096810;28;20413;-87
2022/05/05 08:38:31;;;;;;;3.60;3.10;;;21.80;99.90;;;;;;5104254;28;20854;-88
2022/05/05 08:40:57;;;;;;;3.20;2.90;;;21.90;99.90;;;;;;5109595;28;20419;-96
2022/05/05 08:43:23;;;;;;;2.93;2.73;;;22.00;99.90;;;;;;5111146;28;20444;-88
2022/05/05 08:45:50;;;;;;;3.63;2.97;;;22.00;99.90;;;;;;5092448;28;20676;-95
2022/05/05 08:48:17;;;;;;;4.70;2.83;;;22.10;99.90;;;;;;5089283;28;20208;-87
2022/05/05 08:50:46;;;;;;;3.73;2.67;;;22.20;99.90;;;;;;5111851;28;20452;-96
2022/05/05 08:53:17;;;;;;;3.37;2.90;;;22.20;99.90;;;;;;5087540;28;21191;-92
2022/05/05 08:55:44;;;;;;;3.77;3.30;;;22.30;99.90;;;;;;5088276;28;20755;-88
2022/05/05 08:58:10;;;;;;;2.70;2.50;;;22.40;99.90;;;;;;5083933;28;20486;-96
2022/05/05 09:00:36;;;;;;;2.63;2.40;;;22.50;99.90;;;;;;5093463;28;20435;-95
2022/05/05 09:03:04;;;;;;;3.67;2.63;;;22.50;99.90;;;;;;5114271;28;20444;-96
2022/05/05 09:05:42;;;;;;;2.60;2.40;;;22.60;99.90;;;;;;5089478;28;20213;-96
2022/05/05 09:08:11;;;;;;;3.00;2.80;;;22.70;99.90;;;;;;5109316;28;20506;-88
2022/05/05 09:10:48;;;;;;;3.10;2.70;;;22.80;99.90;;;;;;5074655;28;20498;-88
2022/05/05 09:13:21;;;;;;;2.90;2.70;;;22.90;99.90;;;;;;5013356;28;20476;-88
2022/05/05 09:15:47;;;;;;;3.60;3.03;;;22.90;99.90;;;;;;5011346;28;20412;-95
2022/05/05 09:18:25;;;;;;;3.27;2.93;;;23.00;99.90;;;;;;5066625;28;20615;-96
2022/05/05 09:20:51;;;;;;;3.60;3.00;;;23.10;99.90;;;;;;5042856;28;20676;-88
2022/05/05 09:23:34;;;;;;;3.23;2.90;;;23.20;99.90;;;;;;5035702;28;20501;-87
2022/05/05 09:26:05;;;;;;;3.10;2.67;;;23.30;99.90;;;;;;5001132;28;20202;-88
2022/05/05 09:28:35;;;;;;;3.93;3.33;;;23.30;99.90;;;;;;5016323;28;20463;-88
2022/05/05 09:31:10;;;;;;;3.47;3.17;;;23.30;99.90;;;;;;5026758;28;20426;-88
2022/05/05 09:33:39;;;;;;;3.13;2.87;;;23.40;99.90;;;;;;5030984;28;20454;-87
2022/05/05 09:36:07;;;;;;;3.10;2.90;;;23.40;99.90;;;;;;5041927;28;20429;-88
2022/05/05 09:38:50;;;;;;;3.43;3.13;;;23.50;99.90;;;;;;5028642;27;21176;-88
2022/05/05 09:41:20;;;;;;;2.83;2.63;;;23.50;99.90;;;;;;5001439;28;20448;-88
2022/05/05 09:43:46;;;;;;;4.30;3.23;;;23.50;99.90;;;;;;5017056;27;20435;-88
2022/05/05 09:46:27;;;;;;;3.47;3.17;;;23.50;99.90;;;;;;5046924;27;20775;-87
2022/05/05 09:48:54;;;;;;;2.90;2.70;;;23.60;99.90;;;;;;5059848;28;20459;-88
2022/05/05 09:51:20;;;;;;;3.80;3.33;;;23.50;99.90;;;;;;5069967;27;20866;-96
2022/05/05 09:59:25;;;;;;;3.60;3.23;;;23.60;99.90;;;;;;5122724;27;20917;-88
2022/05/05 10:01:55;;;;;;;3.10;2.83;;;23.70;99.90;;;;;;5012383;28;20737;-96
2022/05/05 10:04:23;;;;;;;67.30;38.80;;;23.70;99.90;;;;;;5079770;28;20422;-96
2022/05/05 10:06:49;;;;;;;5.10;4.23;;;23.70;99.90;;;;;;5042705;27;20461;-95
2022/05/05 10:09:16;;;;;;;3.40;3.10;;;23.70;99.90;;;;;;5014480;28;20433;-96
2022/05/05 10:11:42;;;;;;;3.13;2.90;;;23.70;99.90;;;;;;5025139;28;20477;-88
2022/05/05 10:14:10;;;;;;;3.30;3.00;;;23.70;99.90;;;;;;5009860;28;20482;-96
2022/05/05 10:16:37;;;;;;;3.17;2.97;;;23.70;99.90;;;;;;5069650;27;21022;-96
2022/05/05 10:19:04;;;;;;;5.00;3.27;;;23.80;99.90;;;;;;5034674;28;20823;-88
2022/05/05 10:21:45;;;;;;;3.70;3.33;;;23.90;99.90;;;;;;5012096;28;20456;-88
2022/05/05 10:24:29;;;;;;;3.40;3.10;;;23.90;99.80;;;;;;5027814;28;20662;-88
2022/05/05 10:26:58;;;;;;;3.10;2.80;;;24.00;99.90;;;;;;5030424;28;20449;-96
2022/05/05 10:29:44;;;;;;;2.90;2.70;;;24.00;99.90;;;;;;5030445;27;20966;-96
2022/05/05 10:32:21;;;;;;;4.53;3.30;;;24.00;99.90;;;;;;5011426;28;20476;-88
2022/05/05 10:34:54;;;;;;;3.10;2.80;;;24.10;99.90;;;;;;5038821;27;20449;-96
2022/05/05 10:37:22;;;;;;;3.80;2.80;;;24.00;99.90;;;;;;5053538;27;20767;-96
2022/05/05 10:39:58;;;;;;;4.10;3.10;;;23.90;99.70;;;;;;5077509;27;20501;-95
2022/05/05 10:42:40;;;;;;;3.07;2.80;;;23.90;99.90;;;;;;5032826;28;20469;-96
2022/05/05 10:45:05;;;;;;;2.77;2.57;;;24.00;99.90;;;;;;5057098;28;20476;-88
2022/05/05 10:48:06;;;;;;;3.17;2.87;;;24.00;99.90;;;;;;5022671;27;20470;-88
2022/05/05 10:50:34;;;;;;;3.80;3.00;;;24.10;99.90;;;;;;5037920;28;20203;-88
2022/05/05 10:53:01;;;;;;;4.30;3.50;;;24.20;99.80;;;;;;5030519;28;20502;-88
2022/05/05 10:55:40;;;;;;;3.30;3.00;;;24.30;99.20;;;;;;5016915;28;20566;-88
2022/05/05 10:58:05;;;;;;;3.50;3.20;;;24.40;99.60;;;;;;5030870;28;20478;-88
2022/05/05 11:00:59;;;;;;;3.73;3.43;;;24.40;99.70;;;;;;5031571;27;20434;-88
2022/05/05 11:03:25;;;;;;;3.50;3.20;;;24.60;99.10;;;;;;5037946;27;20312;-88
2022/05/05 11:06:11;;;;;;;4.07;3.77;;;24.60;98.90;;;;;;5027450;28;20527;-96
2022/05/05 11:08:36;;;;;;;3.63;3.33;;;24.70;98.80;;;;;;5043356;28;20181;-96
2022/05/05 11:14:01;;;;;;;4.07;3.10;;;24.60;96.90;;;;;;5026841;28;20180;-87
2022/05/05 11:22:17;;;;;;;4.53;3.33;;;24.40;97.80;;;;;;5029136;27;20453;-89
2022/05/05 11:24:46;;;;;;;4.83;3.10;;;24.40;96.70;;;;;;5018964;28;20507;-96
2022/05/05 11:27:13;;;;;;;4.20;3.73;;;24.30;95.10;;;;;;5009842;28;20457;-89
2022/05/05 11:29:40;;;;;;;3.93;3.63;;;24.30;95.30;;;;;;5025989;28;20425;-88
2022/05/05 11:32:07;;;;;;;4.20;3.63;;;24.30;95.60;;;;;;5013994;28;20897;-87
2022/05/05 11:34:38;;;;;;;3.93;3.53;;;24.30;94.90;;;;;;5012631;28;20418;-88
2022/05/05 11:37:05;;;;;;;4.03;3.63;;;24.30;94.50;;;;;;5046236;28;20489;-96
2022/05/05 11:39:33;;;;;;;4.63;3.00;;;24.40;95.60;;;;;;5010431;28;20467;-96
2022/05/05 11:42:03;;;;;;;3.00;2.80;;;24.50;95.30;;;;;;5044131;27;20466;-88
2022/05/05 11:44:29;;;;;;;5.73;3.37;;;24.60;95.90;;;;;;5035797;27;20628;-96
2022/05/05 11:46:59;;;;;;;3.90;3.50;;;24.60;95.80;;;;;;5016359;28;20461;-92
2022/05/05 11:49:32;;;;;;;4.80;3.23;;;24.70;95.50;;;;;;5030452;28;20419;-96
2022/05/05 11:52:02;;;;;;;3.67;3.37;;;24.70;95.10;;;;;;5017073;28;20504;-96
2022/05/05 11:54:30;;;;;;;3.63;3.33;;;24.80;95.10;;;;;;5035734;28;20430;-94
2022/05/05 11:56:56;;;;;;;4.50;3.23;;;24.80;94.30;;;;;;5020487;28;20519;-96
2022/05/05 12:02:18;;;;;;;3.77;3.47;;;24.70;95.10;;;;;;5037394;27;20462;-89
2022/05/05 12:04:57;;;;;;;3.50;3.20;;;24.70;95.50;;;;;;5008741;28;20458;-89
2022/05/05 12:07:24;;;;;;;3.57;3.27;;;24.70;95.50;;;;;;5043935;27;20549;-88
2022/05/05 12:09:52;;;;;;;3.53;3.23;;;24.70;95.00;;;;;;5034252;28;20442;-88
2022/05/05 12:12:23;;;;;;;5.07;3.27;;;24.70;95.00;;;;;;5098483;28;20474;-96
2022/05/05 12:14:56;;;;;;;3.60;3.30;;;24.80;94.30;;;;;;5099064;28;20528;-96
2022/05/05 12:17:24;;;;;;;3.40;3.10;;;24.90;93.90;;;;;;5090225;28;20495;-96
2022/05/05 12:19:53;;;;;;;3.33;3.00;;;25.00;93.40;;;;;;5094617;28;20461;-96
2022/05/05 12:22:29;;;;;;;3.37;3.07;;;25.00;92.50;;;;;;5090069;28;20484;-88
2022/05/05 12:25:13;;;;;;;4.50;3.40;;;25.10;93.60;;;;;;5101574;27;20507;-88
2022/05/05 12:27:39;;;;;;;4.43;3.13;;;25.10;93.80;;;;;;5085782;28;20458;-88
2022/05/05 12:30:06;;;;;;;3.70;3.30;;;25.20;93.30;;;;;;5102210;27;20430;-96
2022/05/05 12:32:32;;;;;;;3.40;3.10;;;25.20;93.50;;;;;;5095014;28;20776;-96
2022/05/05 12:35:10;;;;;;;3.10;2.90;;;25.20;92.90;;;;;;5087413;28;20431;-95
2022/05/05 12:37:37;;;;;;;3.30;2.73;;;25.20;92.70;;;;;;5099877;27;20563;-95
2022/05/05 12:40:07;;;;;;;2.90;2.70;;;25.20;92.20;;;;;;5104965;28;20439;-96
2022/05/05 12:42:45;;;;;;;3.67;3.37;;;25.10;92.10;;;;;;5091905;28;20452;-96
2022/05/05 12:45:15;;;;;;;3.97;3.20;;;25.10;92.60;;;;;;5107401;28;20424;-88
2022/05/05 12:47:42;;;;;;;3.43;3.10;;;25.10;92.70;;;;;;5090829;28;20452;-96
2022/05/05 12:50:40;;;;;;;3.73;3.20;;;25.00;92.80;;;;;;5110327;28;20473;-96
2022/05/05 13:01:30;;;;;;;3.40;3.10;;;25.20;91.30;;;;;;5115645;28;20450;-96
2022/05/05 13:04:05;;;;;;;3.30;2.90;;;25.20;91.70;;;;;;5097765;28;20533;-88
2022/05/05 13:06:35;;;;;;;3.00;2.77;;;25.20;91.10;;;;;;5105593;28;20503;-87
2022/05/05 13:09:01;;;;;;;3.40;3.10;;;25.20;91.20;;;;;;5098727;28;20984;-95
2022/05/05 13:11:27;;;;;;;4.80;3.60;;;25.30;91.20;;;;;;5121549;27;20757;-95
2022/05/05 13:13:53;;;;;;;4.10;3.80;;;25.30;91.20;;;;;;5122311;27;21119;-95
2022/05/05 13:16:19;;;;;;;3.83;3.53;;;25.30;91.00;;;;;;5098474;27;20192;-96
2022/05/05 13:18:45;;;;;;;4.00;3.50;;;25.30;91.10;;;;;;5107421;28;20998;-88
2022/05/05 13:21:11;;;;;;;3.20;2.90;;;25.30;91.00;;;;;;5121609;28;20580;-88
2022/05/05 13:23:37;;;;;;;3.60;3.30;;;25.30;90.50;;;;;;5103174;27;20474;-96
2022/05/05 13:26:04;;;;;;;4.43;3.83;;;25.20;90.50;;;;;;5092713;27;20497;-88
2022/05/05 13:28:34;;;;;;;3.97;3.10;;;25.20;90.20;;;;;;5111019;28;20496;-91
2022/05/05 13:30:59;;;;;;;3.13;2.83;;;25.20;90.30;;;;;;5099403;27;20517;-87
2022/05/05 13:33:25;;;;;;;3.00;2.80;;;25.20;89.90;;;;;;5117248;27;20540;-96
2022/05/05 13:35:51;;;;;;;3.33;3.03;;;25.10;90.00;;;;;;5100356;28;20182;-96
2022/05/05 13:38:23;;;;;;;11.30;10.20;;;25.00;89.80;;;;;;5099634;27;20585;-88